Nearby METAR Reports

 

KC09 - Morris-Washburn, Illinois, USA
Distance from station: NW 9mi, 14km
Updated: Sun, 28-May-2017 6:55pm CDT
Partly cloudy
Partly cloudy
 Wind from W
Wind: W 14 mph , 22 km/h, Gust: 18 mph , 30 km/h
Temperature: 75°F , 24°C
Dew Point: 54°F , 12°C
Humidity: 47%
Barometer: 29.75 inHg , 1007.5 hPa
Clouds: Partly cloudy
Visibility: 10 miles , 16 km
Cloud details: Partly cloudy 6000 ft
Partly cloudy 9000 ft
2017/05/28 23:55 KC09 282355Z AUTO 28012G16KT 10SM SCT060 SCT090 24/12 A2975 RMK AO2 T02400119 10251 20226
KJOT - Joliet, Illinois, USA
Distance from station: NNE 13mi, 22km
Updated: Sun, 28-May-2017 6:55pm CDT
Mostly cloudy
Mostly cloudy
 Wind from W
Wind: W 7 mph , 11 km/h
Temperature: 77°F , 25°C
Dew Point: 54°F , 12°C
Humidity: 44%
Barometer: 29.76 inHg , 1007.8 hPa
Clouds: Mostly cloudy
Visibility: 10 miles , 16 km
Cloud details: Mostly cloudy 6500 ft
Mostly cloudy 9000 ft
2017/05/28 23:55 KJOT 282355Z AUTO 26006KT 10SM BKN065 BKN090 25/12 A2976 RMK AO2 T02450117 10254 20235
 
KLOT - Romeoville/Chi, Illinois, USA
Distance from station: NNE 21mi, 33km
Updated: Sun, 28-May-2017 6:55pm CDT
Overcast
Overcast
 Wind from W
Wind: W 16 mph , 26 km/h
Temperature: 73°F , 23°C
Dew Point: 55°F , 13°C
Humidity: 53%
Barometer: 29.75 inHg , 1007.5 hPa
Clouds: Overcast
Visibility: 10 miles , 16 km
Cloud details: Mostly cloudy 6000 ft
Overcast 7500 ft
2017/05/28 23:55 KLOT 282355Z AUTO 28014KT 10SM BKN060 OVC075 23/13 A2975 RMK AO2 T02310133 10247 20230
KIKK - Kankakee, Illinois, USA
Distance from station: SE 30mi, 48km
Updated: Sun, 28-May-2017 6:55pm CDT
Clear
Clear
 Wind from W
Wind: W 12 mph , 19 km/h
Temperature: 77°F , 25°C
Dew Point: 50°F , 10°C
Humidity: 39%
Barometer: 29.77 inHg , 1008.1 hPa
Clouds: Clear
Visibility: 10 miles , 16 km
2017/05/28 23:55 KIKK 282355Z AUTO 28010KT 10SM CLR 25/10 A2977 RMK AO2 T02500100 10275 20245
 
KARR - Chicago/Aurora, Illinois, USA
Distance from station: NNW 31mi, 50km
Updated: Sun, 28-May-2017 6:52pm CDT
Partly cloudy
Partly cloudy
 Wind from W
Wind: W 20 mph , 31 km/h, Gust: 25 mph , 41 km/h
Temperature: 75°F , 24°C
Dew Point: 52°F , 11°C
Humidity: 44%
Barometer: 29.75 inHg , 1007.5 hPa
Clouds: Partly cloudy
Visibility: 10 miles , 16 km
Cloud details: Few Clouds 6000 ft
Partly cloudy 8000 ft
2017/05/28 23:52 KARR 282352Z 28017G22KT 10SM FEW060 SCT080 24/11 A2975 RMK AO2 PK WND 28026/2341 SLP071 T02390111 10250 20217 53001 $
KPNT - Pontiac, Illinois, USA
Distance from station: SSW 34mi, 54km
Updated: Sun, 28-May-2017 6:55pm CDT
Mostly cloudy
Mostly cloudy
 Wind from W
Wind: W 13 mph , 20 km/h
Temperature: 75°F , 24°C
Dew Point: 54°F , 12°C
Humidity: 47%
Barometer: 29.78 inHg , 1008.5 hPa
Clouds: Mostly cloudy
Visibility: 10 miles , 16 km
Cloud details: Mostly cloudy 7000 ft
Mostly cloudy 8000 ft
Mostly cloudy 10000 ft
2017/05/28 23:55 KPNT 282355Z AUTO 27011KT 10SM BKN070 BKN080 BKN100 24/12 A2978 RMK AO2 T02410120 10255 20233
 
KDPA - Chicago/Dupage, Illinois, USA
Distance from station: N 40mi, 64km
Updated: Sun, 28-May-2017 6:52pm CDT
Few Clouds
Few Clouds
 Wind from W
Wind: W 13 mph , 20 km/h, Gust: 24 mph , 39 km/h
Temperature: 73°F , 23°C
Dew Point: 55°F , 13°C
Humidity: 53%
Barometer: 29.74 inHg , 1007.1 hPa
Clouds: Few Clouds
Visibility: 10 miles , 16 km
Cloud details: Few Clouds 5500 ft
Few Clouds 9000 ft
2017/05/28 23:52 KDPA 282352Z 28011G21KT 10SM FEW055 FEW090 23/13 A2974 RMK AO2 SLP066 T02280128 10239 20206 53000
KIGQ - Chicago/Lansing, Illinois, USA
Distance from station: ENE 42mi, 67km
Updated: Sun, 28-May-2017 6:55pm CDT
Clear
Clear
 Wind from WNW
Wind: WNW 12 mph , 19 km/h, Gust: 17 mph , 28 km/h
Temperature: 73°F , 23°C
Dew Point: 54°F , 12°C
Humidity: 50%
Barometer: 29.75 inHg , 1007.5 hPa
Clouds: Clear
Visibility: 10 miles , 16 km
2017/05/28 23:55 KIGQ 282355Z AUTO 29010G15KT 10SM CLR 23/12 A2975 RMK AO2 T02300122 10238 20193
 
KMDW - Chicago, Illinois, USA
Distance from station: NE 42mi, 67km
Updated: Sun, 28-May-2017 6:53pm CDT
Mostly cloudy
Mostly cloudy
 Wind from WSW
Wind: WSW 9 mph , 15 km/h
Temperature: 75°F , 24°C
Dew Point: 52°F , 11°C
Humidity: 44%
Barometer: 29.74 inHg , 1007.1 hPa
Clouds: Mostly cloudy
Visibility: 10 miles , 16 km
Cloud details: Partly cloudy 7000 ft
Mostly cloudy 9500 ft
2017/05/28 23:53 KMDW 282353Z 25008KT 10SM SCT070 BKN095 24/11 A2974 RMK AO2 SLP063 60001 T02390111 10250 20194 51004 $
KVYS - Peru, Illinois, USA
Distance from station: W 44mi, 71km
Updated: Sun, 28-May-2017 6:55pm CDT
Clear
Clear
 Wind from WNW
Wind: WNW 16 mph , 26 km/h
Temperature: 73°F , 23°C
Dew Point: 46°F , 8°C
Humidity: 38%
Barometer: 29.78 inHg , 1008.5 hPa
Clouds: Clear
Visibility: 10 miles , 16 km
2017/05/28 23:55 KVYS 282355Z AUTO 29014KT 10SM CLR 23/08 A2978 RMK AO2 T02300079 10239 20211
 
KDKB - De Kalb, Illinois, USA
Distance from station: NNW 46mi, 74km
Updated: Sun, 28-May-2017 6:55pm CDT
Clear
Clear
 Wind from W
Wind: W 20 mph , 31 km/h
Temperature: 73°F , 23°C
Dew Point: 50°F , 10°C
Humidity: 44%
Barometer: 29.76 inHg , 1007.8 hPa
Clouds: Clear
Visibility: 10 miles , 16 km
2017/05/28 23:55 KDKB 282355Z AUTO 27017KT 10SM CLR 23/10 A2976 RMK AO2 T02270095 10236 20201
KORD - Chicago O'hare, Illinois, USA
Distance from station: NNE 48mi, 78km
Updated: Sun, 28-May-2017 6:51pm CDT
Mostly cloudy
Mostly cloudy
 Wind from WSW
Wind: WSW 10 mph , 17 km/h, Gust: 21 mph , 33 km/h
Temperature: 73°F , 23°C
Dew Point: 52°F , 11°C
Humidity: 47%
Barometer: 29.73 inHg , 1006.8 hPa
Clouds: Mostly cloudy
Visibility: 10 miles , 16 km
Cloud details: Partly cloudy 5500 ft
Mostly cloudy 8500 ft
2017/05/28 23:51 KORD 282351Z 25009G18KT 10SM SCT055 BKN085 23/11 A2973 RMK AO2 SLP064 T02330106 10250 20222 51004
 
KGYY - Gary Regional, Indiana, USA
Distance from station: ENE 49mi, 80km
Updated: Sun, 28-May-2017 6:45pm CDT
Few Clouds
Few Clouds
 Wind from calm
Wind: Calm
Temperature: 72°F , 22°C
Dew Point: 57°F , 14°C
Humidity: 61%
Barometer: 29.75 inHg , 1007.5 hPa
Clouds: Few Clouds
Visibility: 10 miles , 16 km
Cloud details: Few Clouds 5000 ft
2017/05/28 23:45 KGYY 282345Z 00000KT 10SM FEW050 22/14 A2975